Time;durP1;ratioP1;P1;durP2;ratioP2;P2;SDS_P1;SDS_P2;PMS_P1;PMS_P2;Temp;Humidity;BMP_temperature;BMP_pressure;BME280_temperature;BME280_humidity;BME280_pressure;Samples;Min_cycle;Max_cycle;Signal;HPM_P1;HPM_P2
2020/12/14 00:00:21;;;;;;;23.77;14.93;;;;;;;1.65;100.00;95825.56;1035953;28;20097;-71
2020/12/14 00:00:53;;;;;;;24.75;15.77;;;;;;;1.70;100.00;95833.88;1031876;28;20073;-72
2020/12/14 00:01:23;;;;;;;27.60;16.25;;;;;;;1.69;100.00;95840.09;1044268;28;20025;-72
2020/12/14 00:01:54;;;;;;;25.08;16.33;;;;;;;1.62;100.00;95833.69;1040118;28;20071;-71
2020/12/14 00:02:27;;;;;;;25.95;15.55;;;;;;;1.62;100.00;95830.22;1032021;28;20076;-73
2020/12/14 00:02:59;;;;;;;21.60;14.65;;;;;;;1.66;100.00;95837.72;1040108;28;20112;-72
2020/12/14 00:03:30;;;;;;;19.67;13.35;;;;;;;1.67;100.00;95838.53;1040052;28;20025;-73
2020/12/14 00:04:00;;;;;;;22.50;14.77;;;;;;;1.65;100.00;95836.03;1036025;28;20018;-72
2020/12/14 00:04:31;;;;;;;23.42;15.32;;;;;;;1.63;100.00;95829.28;1040035;28;20032;-72
2020/12/14 00:05:03;;;;;;;19.38;12.65;;;;;;;1.61;100.00;95828.56;1031828;28;20015;-72
2020/12/14 00:05:33;;;;;;;20.50;13.75;;;;;;;1.63;100.00;95829.28;1040054;28;20526;-72
2020/12/14 00:06:04;;;;;;;22.50;14.55;;;;;;;1.62;100.00;95832.84;1036030;28;20030;-72
2020/12/14 00:06:35;;;;;;;22.23;14.73;;;;;;;1.63;100.00;95826.66;1039958;28;20013;-72
2020/12/14 00:07:06;;;;;;;20.52;13.90;;;;;;;1.61;100.00;95833.81;1035868;28;20422;-73
2020/12/14 00:07:36;;;;;;;26.25;16.50;;;;;;;1.57;100.00;95828.00;1031796;28;20112;-73
2020/12/14 00:08:07;;;;;;;23.70;14.80;;;;;;;1.54;100.00;95827.41;1040049;28;20018;-71
2020/12/14 00:08:40;;;;;;;24.25;15.68;;;;;;;1.48;100.00;95821.72;1040095;28;20612;-72
2020/12/14 00:09:11;;;;;;;23.92;15.55;;;;;;;1.52;100.00;95830.16;1035870;28;20497;-71
2020/12/14 00:09:42;;;;;;;26.35;16.83;;;;;;;1.53;100.00;95830.97;1040218;28;20027;-71
2020/12/14 00:10:13;;;;;;;19.58;13.75;;;;;;;1.52;100.00;95822.31;1036087;28;20021;-71
2020/12/14 00:10:44;;;;;;;27.63;16.25;;;;;;;1.51;100.00;95828.47;1035957;28;20517;-76
2020/12/14 00:11:16;;;;;;;23.33;15.13;;;;;;;1.49;100.00;95823.38;1035868;28;20032;-71
2020/12/14 00:11:46;;;;;;;21.40;14.00;;;;;;;1.52;100.00;95824.09;1032133;28;20026;-72
2020/12/14 00:12:17;;;;;;;25.42;14.82;;;;;;;1.50;100.00;95824.22;1044155;28;20025;-72
2020/12/14 00:12:49;;;;;;;23.52;15.57;;;;;;;1.49;100.00;95825.97;1039994;28;20492;-72
2020/12/14 00:13:19;;;;;;;29.27;16.90;;;;;;;1.42;100.00;95829.22;1035775;28;20091;-72
2020/12/14 00:13:50;;;;;;;25.45;16.65;;;;;;;1.39;100.00;95832.91;1035914;28;20104;-71
2020/12/14 00:14:21;;;;;;;24.13;14.90;;;;;;;1.38;100.00;95825.19;1036099;28;20037;-72
2020/12/14 00:14:52;;;;;;;24.88;14.57;;;;;;;0.74;100.00;95722.13;1039951;28;20076;-73
2020/12/14 00:15:23;;;;;;;24.20;14.73;;;;;;;1.40;100.00;95828.53;1040078;28;20022;-72
2020/12/14 00:15:54;;;;;;;19.15;12.98;;;;;;;1.40;100.00;95825.91;1044174;28;20028;-72
2020/12/14 00:16:25;;;;;;;24.13;15.60;;;;;;;1.41;100.00;95835.41;1048494;28;20024;-72
2020/12/14 00:16:55;;;;;;;27.38;16.27;;;;;;;1.41;100.00;95833.63;1039941;28;20021;-73
2020/12/14 00:17:26;;;;;;;22.92;14.73;;;;;;;1.41;100.00;95827.53;1040038;28;20021;-72
2020/12/14 00:17:57;;;;;;;23.60;15.15;;;;;;;1.40;100.00;95836.38;1044200;28;20040;-72
2020/12/14 00:18:28;;;;;;;20.38;14.05;;;;;;;1.40;100.00;95831.13;1031908;28;20057;-73
2020/12/14 00:18:58;;;;;;;21.63;14.45;;;;;;;1.37;100.00;95839.22;1039971;28;20013;-72
2020/12/14 00:19:29;;;;;;;31.42;18.17;;;;;;;1.34;100.00;95834.22;1040115;28;20021;-73
2020/12/14 00:20:00;;;;;;;23.85;15.43;;;;;;;1.32;100.00;95834.34;1040052;28;20086;-71
2020/12/14 00:20:31;;;;;;;24.00;15.27;;;;;;;1.34;100.00;95836.84;1044087;28;20096;-71
2020/12/14 00:21:03;;;;;;;31.75;18.23;;;;;;;1.30;100.00;95831.03;1031725;28;20061;-72
2020/12/14 00:21:34;;;;;;;28.75;17.48;;;;;;;1.29;100.00;95840.66;1044183;28;20021;-71
2020/12/14 00:22:04;;;;;;;35.97;18.83;;;;;;;1.27;100.00;95845.19;1044136;28;20028;-72
2020/12/14 00:22:35;;;;;;;42.65;20.80;;;;;;;1.24;100.00;95850.66;1040050;28;20057;-72
2020/12/14 00:23:06;;;;;;;27.23;16.92;;;;;;;1.17;100.00;95833.78;1040139;28;20087;-72
2020/12/14 00:23:37;;;;;;;37.88;20.33;;;;;;;1.17;100.00;95852.09;1044058;28;20025;-72
2020/12/14 00:24:07;;;;;;;30.33;18.58;;;;;;;1.18;100.00;95843.28;1048242;28;20473;-73
2020/12/14 00:24:38;;;;;;;34.08;18.63;;;;;;;1.18;100.00;95840.66;1039964;28;20060;-72
2020/12/14 00:25:09;;;;;;;43.28;21.33;;;;;;;1.18;100.00;95848.50;1039798;28;20396;-73
2020/12/14 00:25:39;;;;;;;34.85;20.67;;;;;;;1.17;100.00;95846.88;1039905;28;20037;-72
2020/12/14 00:26:10;;;;;;;39.33;20.88;;;;;;;1.13;100.00;95846.28;1044328;28;20382;-72
2020/12/14 00:26:41;;;;;;;42.75;22.60;;;;;;;1.11;100.00;95845.53;1044381;28;20477;-72
2020/12/14 00:27:12;;;;;;;49.80;25.00;;;;;;;1.11;100.00;95848.16;1040005;28;20039;-71
2020/12/14 00:27:43;;;;;;;46.03;22.92;;;;;;;1.12;100.00;95841.16;1031842;28;20423;-71
2020/12/14 00:28:15;;;;;;;60.72;26.52;;;;;;;1.10;100.00;95846.50;1035950;28;20442;-71
2020/12/14 00:28:48;;;;;;;28.67;18.00;;;;;;;1.08;100.00;95843.19;1039885;28;20028;-73
2020/12/14 00:29:19;;;;;;;59.97;27.08;;;;;;;1.09;100.00;95851.84;1031794;28;20352;-71
2020/12/14 00:29:50;;;;;;;54.95;26.55;;;;;;;1.08;100.00;95851.03;1040045;28;20025;-71
2020/12/14 00:30:21;;;;;;;86.65;30.92;;;;;;;1.07;100.00;95851.16;1035909;28;20120;-71
2020/12/14 00:30:51;;;;;;;69.05;25.85;;;;;;;1.06;100.00;95849.47;1035842;28;20033;-71
2020/12/14 00:31:22;;;;;;;65.53;27.05;;;;;;;1.04;100.00;95856.63;1035829;28;20120;-71
2020/12/14 00:31:53;;;;;;;60.13;26.98;;;;;;;1.03;100.00;95854.94;1040021;28;20401;-71
2020/12/14 00:32:24;;;;;;;64.20;27.55;;;;;;;0.85;100.00;95824.03;1039995;28;20063;-71
2020/12/14 00:32:55;;;;;;;56.78;26.42;;;;;;;1.02;100.00;95853.28;1043937;28;20162;-74
2020/12/14 00:33:26;;;;;;;59.08;28.98;;;;;;;1.02;100.00;95854.13;1035824;28;20018;-71
2020/12/14 00:33:57;;;;;;;37.85;20.52;;;;;;;1.01;100.00;95851.63;1040017;28;20036;-71
2020/12/14 00:34:28;;;;;;;78.38;29.67;;;;;;;1.00;100.00;95855.19;1043989;28;20052;-71
2020/12/14 00:34:58;;;;;;;42.30;22.42;;;;;;;0.99;100.00;95856.13;1035832;28;20022;-71
2020/12/14 00:35:29;;;;;;;31.00;17.90;;;;;;;0.99;100.00;95848.28;1044045;28;20531;-71
2020/12/14 00:36:00;;;;;;;30.90;18.38;;;;;;;0.94;100.00;95846.88;1044185;28;20539;-71
2020/12/14 00:36:31;;;;;;;44.65;24.27;;;;;;;0.97;100.00;95853.63;1040004;28;20172;-71
2020/12/14 00:37:03;;;;;;;48.97;25.75;;;;;;;0.97;100.00;95850.19;1043982;28;20066;-72
2020/12/14 00:37:34;;;;;;;34.00;20.30;;;;;;;0.96;100.00;95857.22;1035829;28;20018;-72
2020/12/14 00:38:05;;;;;;;31.20;19.23;;;;;;;0.93;100.00;95845.19;1031889;28;20113;-71
2020/12/14 00:38:36;;;;;;;50.75;25.52;;;;;;;0.94;100.00;95854.72;1039984;28;20022;-73
2020/12/14 00:39:06;;;;;;;53.40;24.95;;;;;;;0.92;100.00;95856.63;1039833;28;20354;-72
2020/12/14 00:39:37;;;;;;;30.80;19.70;;;;;;;0.92;100.00;95855.78;1044050;28;20051;-72
2020/12/14 00:40:08;;;;;;;33.95;19.27;;;;;;;0.90;100.00;95849.84;1040094;28;20032;-71
2020/12/14 00:40:39;;;;;;;42.88;23.35;;;;;;;0.90;100.00;95855.88;1031953;28;20022;-71
2020/12/14 00:41:10;;;;;;;44.13;23.58;;;;;;;0.92;100.00;95854.00;1039775;28;20104;-73
2020/12/14 00:41:41;;;;;;;41.78;22.08;;;;;;;0.92;100.00;95863.63;1035918;28;20080;-71
2020/12/14 00:42:11;;;;;;;38.58;20.40;;;;;;;0.89;100.00;95849.03;1039983;28;20540;-71
2020/12/14 00:42:43;;;;;;;50.78;25.83;;;;;;;0.92;100.00;95861.84;1035834;28;20053;-72
2020/12/14 00:43:14;;;;;;;35.90;20.77;;;;;;;0.85;100.00;95851.97;1039841;28;20025;-71
2020/12/14 00:43:44;;;;;;;31.92;18.08;;;;;;;0.91;100.00;95856.75;1048210;28;20222;-71
2020/12/14 00:44:15;;;;;;;30.75;18.40;;;;;;;0.91;100.00;95857.56;1039881;28;20056;-71
2020/12/14 00:44:46;;;;;;;41.85;22.92;;;;;;;0.90;100.00;95857.69;1039825;28;20071;-72
2020/12/14 00:45:17;;;;;;;28.42;16.95;;;;;;;0.91;100.00;95857.56;1035824;28;20080;-71
2020/12/14 00:45:48;;;;;;;31.27;18.77;;;;;;;0.90;100.00;95861.13;1031815;28;20181;-71
2020/12/14 00:46:19;;;;;;;31.13;18.52;;;;;;;0.84;100.00;95855.56;1031819;28;20030;-71
2020/12/14 00:46:50;;;;;;;30.73;17.52;;;;;;;0.91;100.00;95867.19;1031859;28;20033;-71
2020/12/14 00:47:20;;;;;;;26.90;16.30;;;;;;;0.90;100.00;95862.91;1031770;28;20148;-71
2020/12/14 00:47:51;;;;;;;41.75;22.95;;;;;;;0.89;100.00;95866.50;1044030;28;20025;-71
2020/12/14 00:48:22;;;;;;;38.75;21.05;;;;;;;0.84;100.00;95856.38;1039876;28;20024;-71
2020/12/14 00:48:53;;;;;;;49.47;24.63;;;;;;;0.89;100.00;95862.09;1035786;28;20026;-72
2020/12/14 00:49:24;;;;;;;31.23;17.98;;;;;;;0.88;100.00;95868.25;1039828;28;20083;-71
2020/12/14 00:49:54;;;;;;;25.88;15.63;;;;;;;0.88;100.00;95873.47;1039882;28;20017;-71
2020/12/14 00:50:25;;;;;;;34.90;18.45;;;;;;;0.82;100.00;95849.59;1035958;28;20151;-71
2020/12/14 00:50:56;;;;;;;50.53;23.88;;;;;;;0.85;100.00;95868.47;1039742;28;20551;-72
2020/12/14 00:51:28;;;;;;;57.78;26.35;;;;;;;0.76;100.00;95856.13;1039966;28;20025;-71
2020/12/14 00:52:04;;;;;;;36.45;18.88;;;;;;;0.82;100.00;95863.50;1031870;28;20022;-71
2020/12/14 00:52:34;;;;;;;40.05;21.15;;;;;;;0.81;100.00;95866.25;1044079;28;20116;-71
2020/12/14 00:53:05;;;;;;;25.08;15.13;;;;;;;0.81;100.00;95866.25;1039970;28;20035;-72
2020/12/14 00:53:37;;;;;;;22.15;13.43;;;;;;;0.80;100.00;95867.19;1040000;28;20498;-71
2020/12/14 00:54:07;;;;;;;46.72;23.92;;;;;;;0.79;100.00;95873.38;1040032;28;20105;-72
2020/12/14 00:54:39;;;;;;;31.95;17.55;;;;;;;0.80;100.00;95870.66;1043987;28;20129;-71
2020/12/14 00:55:10;;;;;;;39.03;18.88;;;;;;;0.73;100.00;95851.13;1039940;28;20365;-72
2020/12/14 00:55:41;;;;;;;120.85;32.42;;;;;;;0.70;100.00;95856.63;1044021;28;20017;-72
2020/12/14 00:56:11;;;;;;;434.50;59.10;;;;;;;0.75;100.00;95867.56;1039980;28;20033;-72
2020/12/14 00:56:43;;;;;;;245.65;41.15;;;;;;;0.75;100.00;95872.78;1035841;28;20032;-73
2020/12/14 00:57:13;;;;;;;770.45;69.25;;;;;;;0.75;100.00;95878.00;1039735;28;20461;-73
2020/12/14 00:57:44;;;;;;;147.23;32.42;;;;;;;0.74;100.00;95878.94;1031754;28;20031;-73
2020/12/14 00:58:15;;;;;;;113.30;35.33;;;;;;;0.75;100.00;95883.25;1043983;28;20044;-73
2020/12/14 00:58:45;;;;;;;135.60;28.73;;;;;;;0.73;100.00;95883.34;1035799;28;20020;-73
2020/12/14 00:59:16;;;;;;;712.17;52.05;;;;;;;0.73;100.00;95885.97;1031774;28;20014;-72
2020/12/14 00:59:47;;;;;;;189.60;21.05;;;;;;;0.73;100.00;95887.72;1031797;28;20079;-72
2020/12/14 01:00:18;;;;;;;103.40;15.98;;;;;;;0.70;100.00;95891.41;1048199;28;20028;-71
2020/12/14 01:00:48;;;;;;;61.45;18.80;;;;;;;0.70;100.00;95888.81;1039812;28;20029;-73
2020/12/14 01:01:19;;;;;;;41.67;18.42;;;;;;;0.69;100.00;95894.97;1039821;28;20476;-72
2020/12/14 01:01:51;;;;;;;72.88;22.42;;;;;;;0.67;100.00;95894.25;1040016;28;20092;-71
2020/12/14 01:02:22;;;;;;;29.75;17.10;;;;;;;0.67;100.00;95891.63;1039945;28;20021;-72
2020/12/14 01:02:53;;;;;;;30.17;16.27;;;;;;;0.59;100.00;95899.22;1039851;28;20567;-71
2020/12/14 01:03:24;;;;;;;47.95;20.00;;;;;;;0.64;100.00;95896.28;1039936;28;20099;-72
2020/12/14 01:03:55;;;;;;;36.45;17.20;;;;;;;0.59;100.00;95893.16;1035883;28;20116;-71
2020/12/14 01:04:25;;;;;;;28.27;15.95;;;;;;;0.62;100.00;95899.00;1043938;28;20120;-70
2020/12/14 01:04:56;;;;;;;64.38;24.08;;;;;;;0.60;100.00;95905.28;1035750;28;20025;-71
2020/12/14 01:05:27;;;;;;;91.60;29.27;;;;;;;0.59;100.00;95903.63;1031801;28;20116;-72
2020/12/14 01:05:58;;;;;;;86.10;26.02;;;;;;;0.58;100.00;95907.19;1031756;28;20018;-71
2020/12/14 01:06:29;;;;;;;65.97;24.38;;;;;;;0.50;100.00;95900.75;1039886;28;20075;-73
2020/12/14 01:06:59;;;;;;;115.93;28.83;;;;;;;0.53;100.00;95908.34;1035700;28;20022;-71
2020/12/14 01:07:30;;;;;;;103.05;30.67;;;;;;;0.48;100.00;95900.03;1035807;28;20577;-72
2020/12/14 01:08:01;;;;;;;81.03;29.83;;;;;;;0.45;100.00;95895.03;1040256;28;20024;-72
2020/12/14 01:08:32;;;;;;;84.28;30.48;;;;;;;0.43;100.00;95899.53;1040763;28;20477;-72
2020/12/14 01:09:03;;;;;;;78.30;30.83;;;;;;;0.42;100.00;95891.81;1040452;28;20030;-71
2020/12/14 01:09:34;;;;;;;66.32;28.05;;;;;;;0.37;100.00;95893.00;1036673;28;20145;-72
2020/12/14 01:10:05;;;;;;;72.32;28.67;;;;;;;0.42;100.00;95891.81;1040709;28;20014;-71
2020/12/14 01:10:35;;;;;;;62.35;26.60;;;;;;;0.44;100.00;95897.78;1044863;28;20441;-72
2020/12/14 01:11:06;;;;;;;42.28;21.75;;;;;;;0.43;100.00;95889.09;1040539;28;20052;-72
2020/12/14 01:11:37;;;;;;;64.88;26.40;;;;;;;0.44;100.00;95892.56;1036148;28;20017;-71
2020/12/14 01:12:07;;;;;;;88.75;31.92;;;;;;;0.42;100.00;95894.44;1036596;28;20010;-72
2020/12/14 01:12:38;;;;;;;132.07;35.00;;;;;;;0.38;100.00;95899.06;1040755;28;20039;-72
2020/12/14 01:13:09;;;;;;;161.90;38.72;;;;;;;0.35;100.00;95892.28;1040603;28;20045;-71
2020/12/14 01:13:39;;;;;;;43.30;22.85;;;;;;;0.38;100.00;95888.59;1040824;28;20343;-72
2020/12/14 01:14:10;;;;;;;55.33;25.23;;;;;;;0.37;100.00;95886.97;1040633;28;20021;-72
2020/12/14 01:14:41;;;;;;;58.50;25.73;;;;;;;0.37;100.00;95879.94;1040687;28;20445;-71
2020/12/14 01:15:12;;;;;;;79.68;30.65;;;;;;;0.30;100.00;95873.53;1040723;28;20017;-72
2020/12/14 01:15:43;;;;;;;97.55;32.00;;;;;;;0.13;100.00;95851.28;1040689;28;20100;-71
2020/12/14 01:16:14;;;;;;;86.22;30.30;;;;;;;0.31;100.00;95875.16;1040886;28;20068;-71
2020/12/14 01:16:47;;;;;;;34.25;17.52;;;;;;;0.31;100.00;95871.72;1040696;28;20641;-72
2020/12/14 01:17:18;;;;;;;39.78;21.50;;;;;;;0.28;100.00;95864.97;1044708;28;20082;-72
2020/12/14 01:17:48;;;;;;;32.08;18.95;;;;;;;0.33;100.00;95875.91;1044808;28;20009;-71
2020/12/14 01:18:19;;;;;;;37.10;20.52;;;;;;;0.32;100.00;95876.84;1044855;28;20100;-72
2020/12/14 01:18:50;;;;;;;26.38;16.60;;;;;;;0.31;100.00;95877.78;1040727;28;20062;-74
2020/12/14 01:19:21;;;;;;;25.65;15.30;;;;;;;0.32;100.00;95873.41;1040699;28;20431;-70
2020/12/14 01:19:52;;;;;;;27.75;15.85;;;;;;;0.28;100.00;95864.97;1044986;28;20020;-71
2020/12/14 01:20:22;;;;;;;31.17;18.02;;;;;;;0.25;100.00;95861.75;1036713;28;20018;-71
2020/12/14 01:20:53;;;;;;;22.58;14.95;;;;;;;0.32;100.00;95873.41;1036520;28;20072;-71
2020/12/14 01:21:24;;;;;;;24.17;15.95;;;;;;;0.31;100.00;95874.34;1032518;28;20020;-71
2020/12/14 01:21:55;;;;;;;22.40;13.55;;;;;;;0.30;100.00;95860.47;1040716;28;20047;-72
2020/12/14 01:22:26;;;;;;;27.95;16.23;;;;;;;0.24;100.00;95853.06;1044760;28;20108;-71
2020/12/14 01:22:56;;;;;;;31.25;18.08;;;;;;;0.30;100.00;95872.69;1048854;28;20012;-72
2020/12/14 01:23:27;;;;;;;32.90;19.10;;;;;;;0.20;100.00;95853.44;1048784;28;20150;-72
2020/12/14 01:23:58;;;;;;;50.70;23.40;;;;;;;0.26;100.00;95872.09;1036626;28;20041;-72
2020/12/14 01:24:29;;;;;;;49.80;23.38;;;;;;;0.16;100.00;95851.03;1036433;28;20021;-72
2020/12/14 01:25:00;;;;;;;40.80;19.60;;;;;;;0.28;100.00;95869.34;1036469;28;20475;-71
2020/12/14 01:25:31;;;;;;;22.30;13.85;;;;;;;0.28;100.00;95864.97;1036439;28;20014;-71
2020/12/14 01:26:01;;;;;;;25.67;16.70;;;;;;;0.28;100.00;95859.75;1040633;28;20029;-72
2020/12/14 01:26:32;;;;;;;24.65;15.23;;;;;;;0.29;100.00;95857.97;1036607;28;20125;-71
2020/12/14 01:27:03;;;;;;;35.13;18.58;;;;;;;0.27;100.00;95860.69;1040547;28;20029;-71
2020/12/14 01:27:35;;;;;;;47.33;22.02;;;;;;;0.26;100.00;95858.19;1049034;28;20484;-73
2020/12/14 01:28:06;;;;;;;281.20;47.60;;;;;;;0.26;100.00;95850.34;1040868;28;20108;-71
2020/12/14 01:28:37;;;;;;;303.83;43.83;;;;;;;0.23;100.00;95859.25;1032613;28;20027;-70
2020/12/14 01:29:08;;;;;;;210.10;37.55;;;;;;;0.12;100.00;95851.38;1036467;28;20080;-71
2020/12/14 01:29:39;;;;;;;191.73;29.05;;;;;;;0.18;100.00;95861.38;1036548;28;20036;-70
2020/12/14 01:30:11;;;;;;;18.63;12.55;;;;;;;0.13;100.00;95850.44;1040809;28;20040;-70
2020/12/14 01:30:42;;;;;;;33.10;18.27;;;;;;;0.17;100.00;95863.16;1036522;28;20021;-72
2020/12/14 01:31:14;;;;;;;27.55;17.08;;;;;;;0.12;100.00;95851.38;1036437;28;20049;-71
2020/12/14 01:31:44;;;;;;;23.05;15.40;;;;;;;0.18;100.00;95854.38;1040753;28;20021;-71
2020/12/14 01:32:15;;;;;;;24.15;14.52;;;;;;;0.17;100.00;95852.72;1040838;28;20167;-70
2020/12/14 01:32:46;;;;;;;28.85;15.77;;;;;;;0.20;100.00;95856.03;1036506;28;20109;-71
2020/12/14 01:33:17;;;;;;;32.72;16.73;;;;;;;0.18;100.00;95850.94;1040585;28;20112;-71
2020/12/14 01:33:48;;;;;;;34.17;18.45;;;;;;;0.17;100.00;95852.72;1036599;28;20482;-71
2020/12/14 01:34:19;;;;;;;32.95;17.17;;;;;;;0.16;100.00;95848.44;1036409;28;20494;-71
2020/12/14 01:34:50;;;;;;;30.98;16.50;;;;;;;0.19;100.00;95855.19;1036553;28;20029;-71
2020/12/14 01:35:20;;;;;;;34.53;18.90;;;;;;;0.08;100.00;95840.34;1036500;28;20017;-71
2020/12/14 01:35:52;;;;;;;62.75;24.05;;;;;;;0.15;100.00;95851.16;1044767;28;20021;-70
2020/12/14 01:36:22;;;;;;;52.95;22.30;;;;;;;0.13;100.00;95850.44;1040764;28;20112;-71
2020/12/14 01:36:53;;;;;;;48.40;22.33;;;;;;;0.09;100.00;95847.22;1032458;28;20489;-71
2020/12/14 01:37:24;;;;;;;49.80;23.15;;;;;;;0.09;100.00;95854.25;1032500;28;20100;-71
2020/12/14 01:37:55;;;;;;;44.00;19.58;;;;;;;-0.04;100.00;95822.97;1032544;28;20033;-70
2020/12/14 01:38:26;;;;;;;54.30;23.10;;;;;;;0.10;100.00;95845.44;1044728;28;20052;-71
2020/12/14 01:38:57;;;;;;;53.03;24.88;;;;;;;0.10;100.00;95846.28;1036447;28;20049;-71
2020/12/14 01:39:28;;;;;;;215.55;40.10;;;;;;;0.05;100.00;95837.94;1036538;28;20389;-70
2020/12/14 01:39:58;;;;;;;545.78;57.20;;;;;;;0.01;100.00;95846.97;1036565;28;20073;-71
2020/12/14 01:40:29;;;;;;;520.67;54.95;;;;;;;-0.04;100.00;95843.84;1036512;28;20053;-71
2020/12/14 01:41:00;;;;;;;211.52;36.05;;;;;;;-0.04;100.00;95841.25;1040528;28;20444;-72
2020/12/14 01:41:31;;;;;;;189.45;38.47;;;;;;;-0.05;100.00;95848.25;1032509;28;20023;-71
2020/12/14 01:42:02;;;;;;;114.63;32.38;;;;;;;-0.04;100.00;95842.06;1040580;28;20022;-71
2020/12/14 01:42:38;;;;;;;87.88;32.83;;;;;;;-0.03;100.00;95840.31;1048929;28;20025;-70
2020/12/14 01:43:09;;;;;;;57.05;25.17;;;;;;;-0.03;100.00;95840.31;1036421;28;20097;-73
2020/12/14 01:43:40;;;;;;;75.70;28.27;;;;;;;-0.03;100.00;95845.53;1040666;28;20488;-71
2020/12/14 01:44:11;;;;;;;69.03;28.17;;;;;;;-0.06;100.00;95851.78;1036466;28;20037;-71
2020/12/14 01:44:42;;;;;;;77.43;28.90;;;;;;;-0.09;100.00;95846.78;1032448;28;20045;-72
2020/12/14 01:45:13;;;;;;;45.65;23.02;;;;;;;-0.07;100.00;95844.06;1036657;28;20053;-71
2020/12/14 01:45:43;;;;;;;37.97;20.83;;;;;;;-0.12;100.00;95833.16;1032755;28;20033;-71
2020/12/14 01:46:14;;;;;;;30.85;17.30;;;;;;;-0.03;100.00;95845.53;1044741;28;20501;-71
2020/12/14 01:46:45;;;;;;;36.75;20.38;;;;;;;-0.02;100.00;95848.03;1032445;28;20022;-71
2020/12/14 01:47:29;;;;;;;40.78;21.45;;;;;;;-0.21;100.00;95822.47;1040734;28;20022;-71
2020/12/14 01:48:02;;;;;;;36.72;20.55;;;;;;;0.01;100.00;95849.56;1044784;28;20043;-71
2020/12/14 01:48:33;;;;;;;36.75;20.33;;;;;;;0.04;100.00;95851.13;1044800;28;20017;-71
2020/12/14 01:49:04;;;;;;;36.88;22.50;;;;;;;0.05;100.00;95852.78;1048572;28;20528;-70
2020/12/14 01:49:35;;;;;;;38.70;22.98;;;;;;;0.04;100.00;95851.97;1036678;28;20044;-70
2020/12/14 01:50:06;;;;;;;38.05;20.80;;;;;;;0.08;100.00;95852.56;1044738;28;20460;-70
2020/12/14 01:50:37;;;;;;;36.20;20.67;;;;;;;0.07;100.00;95851.75;1032495;28;20018;-70
2020/12/14 01:51:08;;;;;;;33.58;20.20;;;;;;;-0.14;100.00;95820.22;1044482;28;20021;-71
2020/12/14 01:51:39;;;;;;;32.00;19.35;;;;;;;0.07;100.00;95851.75;1040597;28;20385;-71
2020/12/14 01:52:10;;;;;;;34.42;19.85;;;;;;;0.10;100.00;95848.06;1036542;28;20605;-71
2020/12/14 01:52:44;;;;;;;30.48;18.75;;;;;;;0.10;100.00;95856.72;1040616;28;20018;-72
2020/12/14 01:53:15;;;;;;;29.15;18.48;;;;;;;-0.32;100.00;95785.88;1036308;28;20041;-71
2020/12/14 01:53:46;;;;;;;26.10;16.27;;;;;;;0.13;100.00;95853.88;1032441;28;20499;-72
2020/12/14 01:54:28;;;;;;;27.85;16.63;;;;;;;0.14;100.00;95850.34;1040522;28;20462;-71
2020/12/14 01:55:01;;;;;;;34.92;19.80;;;;;;;0.12;100.00;95854.84;1044589;28;20477;-71
2020/12/14 01:55:34;;;;;;;51.35;23.40;;;;;;;0.10;100.00;95851.50;1044711;28;20444;-71
2020/12/14 01:56:05;;;;;;;31.42;17.73;;;;;;;0.05;100.00;95842.34;1036461;28;20010;-71
2020/12/14 01:56:35;;;;;;;43.10;22.23;;;;;;;-0.07;100.00;95815.38;1036522;28;20026;-71
2020/12/14 01:57:06;;;;;;;29.70;16.25;;;;;;;0.11;100.00;95849.72;1032391;28;20015;-72
2020/12/14 01:57:37;;;;;;;31.48;19.52;;;;;;;0.04;100.00;95835.47;1032509;28;20037;-71
2020/12/14 01:58:09;;;;;;;32.10;18.67;;;;;;;0.10;100.00;95846.28;1032415;28;20011;-72
2020/12/14 01:58:40;;;;;;;27.17;17.05;;;;;;;0.11;100.00;95847.94;1044622;28;20059;-71
2020/12/14 01:59:11;;;;;;;24.33;15.13;;;;;;;0.12;100.00;95841.78;1036345;28;20026;-71
2020/12/14 01:59:41;;;;;;;31.95;19.10;;;;;;;0.12;100.00;95843.56;1036445;28;20448;-71
2020/12/14 02:00:12;;;;;;;43.25;22.30;;;;;;;0.12;100.00;95838.31;1040593;28;20044;-71
2020/12/14 02:00:43;;;;;;;34.58;19.55;;;;;;;0.08;100.00;95834.28;1036409;28;20014;-72
2020/12/14 02:01:14;;;;;;;33.17;19.77;;;;;;;0.11;100.00;95837.50;1036388;28;20414;-71
2020/12/14 02:01:45;;;;;;;34.10;19.55;;;;;;;0.13;100.00;95840.81;1044602;28;20023;-72
2020/12/14 02:02:16;;;;;;;38.25;20.92;;;;;;;0.13;100.00;95840.81;1048775;28;20016;-71
2020/12/14 02:02:46;;;;;;;33.17;19.45;;;;;;;0.05;100.00;95831.91;1036366;28;20406;-72
2020/12/14 02:03:18;;;;;;;25.42;15.88;;;;;;;0.13;100.00;95842.63;1032295;28;20090;-72
2020/12/14 02:03:49;;;;;;;28.95;17.60;;;;;;;0.14;100.00;95847.72;1040459;28;20096;-72
2020/12/14 02:04:19;;;;;;;28.90;16.90;;;;;;;0.16;100.00;95847.63;1036353;28;20028;-71
2020/12/14 02:04:50;;;;;;;31.08;17.23;;;;;;;0.10;100.00;95835.00;1040354;28;20025;-73
2020/12/14 02:05:21;;;;;;;33.08;19.75;;;;;;;0.18;100.00;95843.09;1040492;28;20027;-71
2020/12/14 02:05:52;;;;;;;29.23;17.60;;;;;;;0.09;100.00;95834.19;1036402;28;20471;-71
2020/12/14 02:06:23;;;;;;;33.17;19.08;;;;;;;0.10;100.00;95838.44;1036453;28;20021;-72
2020/12/14 02:06:54;;;;;;;28.00;16.95;;;;;;;0.17;100.00;95850.13;1040582;28;20366;-72
2020/12/14 02:07:25;;;;;;;22.63;14.85;;;;;;;0.18;100.00;95853.53;1044543;28;20040;-71
2020/12/14 02:07:56;;;;;;;30.13;16.95;;;;;;;0.17;100.00;95846.66;1044676;28;20031;-73
2020/12/14 02:08:26;;;;;;;37.35;20.38;;;;;;;0.12;100.00;95852.22;1044768;28;20013;-72
2020/12/14 02:08:57;;;;;;;29.55;16.80;;;;;;;0.12;100.00;95854.84;1036432;28;20029;-72
2020/12/14 02:09:28;;;;;;;26.55;17.40;;;;;;;0.14;100.00;95854.69;1041067;28;20541;-70
2020/12/14 02:09:59;;;;;;;26.48;15.95;;;;;;;0.14;100.00;95855.56;1041542;28;20048;-70
2020/12/14 02:10:29;;;;;;;32.25;17.85;;;;;;;0.12;100.00;95860.06;1041277;28;20367;-70
2020/12/14 02:11:00;;;;;;;37.78;19.25;;;;;;;0.12;100.00;95859.22;1040936;28;20057;-72
2020/12/14 02:11:31;;;;;;;31.83;18.27;;;;;;;0.11;100.00;95861.00;1040908;28;20386;-71
2020/12/14 02:12:02;;;;;;;25.08;15.57;;;;;;;0.12;100.00;95857.47;1041268;28;20021;-71
2020/12/14 02:12:33;;;;;;;27.08;15.80;;;;;;;0.05;100.00;95848.38;1041144;28;20037;-71
2020/12/14 02:13:03;;;;;;;21.00;13.40;;;;;;;0.12;100.00;95860.06;1046139;28;20020;-72
2020/12/14 02:13:34;;;;;;;25.20;16.63;;;;;;;0.14;100.00;95854.69;1045397;28;20397;-72
2020/12/14 02:14:05;;;;;;;32.17;18.55;;;;;;;0.12;100.00;95854.84;1041356;28;20032;-72
2020/12/14 02:14:36;;;;;;;26.33;14.70;;;;;;;0.13;100.00;95856.50;1041376;28;20024;-71
2020/12/14 02:15:07;;;;;;;24.77;15.52;;;;;;;0.12;100.00;95865.28;1032860;28;20475;-71
2020/12/14 02:15:38;;;;;;;21.05;14.40;;;;;;;0.13;100.00;95863.50;1041247;28;20029;-71
2020/12/14 02:16:09;;;;;;;27.00;16.25;;;;;;;0.14;100.00;95852.09;1033282;28;20434;-71
2020/12/14 02:16:40;;;;;;;24.80;15.05;;;;;;;0.15;100.00;95859.00;1049477;28;20054;-71
2020/12/14 02:17:11;;;;;;;29.20;16.70;;;;;;;0.14;100.00;95857.31;1040909;28;20025;-71
2020/12/14 02:17:42;;;;;;;33.50;18.63;;;;;;;0.13;100.00;95853.06;1033045;28;20030;-72
2020/12/14 02:18:12;;;;;;;37.78;19.55;;;;;;;0.12;100.00;95860.06;1037209;28;20108;-70
2020/12/14 02:18:43;;;;;;;36.42;20.38;;;;;;;0.13;100.00;95866.09;1041208;28;20124;-71
2020/12/14 02:19:14;;;;;;;39.45;20.30;;;;;;;0.11;100.00;95857.56;1036804;28;20026;-71
2020/12/14 02:19:46;;;;;;;33.30;18.95;;;;;;;0.04;100.00;95854.56;1037212;28;20025;-71
2020/12/14 02:20:17;;;;;;;26.15;15.57;;;;;;;0.11;100.00;95866.22;1033007;28;20027;-71
2020/12/14 02:20:48;;;;;;;31.33;17.63;;;;;;;0.10;100.00;95861.94;1032873;28;20018;-71
2020/12/14 02:21:19;;;;;;;35.75;19.80;;;;;;;0.09;100.00;95862.91;1033055;28;20030;-71
2020/12/14 02:21:50;;;;;;;26.15;16.08;;;;;;;0.12;100.00;95861.81;1045445;28;20029;-71
2020/12/14 02:22:23;;;;;;;26.70;16.00;;;;;;;0.10;100.00;95864.53;1041179;28;20156;-71
2020/12/14 02:22:54;;;;;;;27.10;14.63;;;;;;;0.10;100.00;95861.94;1045046;28;20482;-72